Time;durP1;ratioP1;P1;durP2;ratioP2;P2;SDS_P1;SDS_P2;PMS_P1;PMS_P2;Temp;Humidity;BMP_temperature;BMP_pressure;BME280_temperature;BME280_humidity;BME280_pressure;Samples;Min_cycle;Max_cycle;Signal;HPM_P1;HPM_P2
2023/04/29 00:01:47;;;;;;;55.67;38.30;;;;;;;9.91;100.00;101406.78;5034049;28;20030;-51
2023/04/29 00:04:13;;;;;;;55.25;37.00;;;;;;;9.90;100.00;101413.06;5034342;28;20030;-51
2023/04/29 00:06:38;;;;;;;52.97;36.58;;;;;;;9.82;100.00;101406.47;5033020;28;20033;-51
2023/04/29 00:09:03;;;;;;;51.83;36.60;;;;;;;9.81;100.00;101402.09;5034647;28;20128;-51
2023/04/29 00:11:28;;;;;;;54.50;39.13;;;;;;;9.80;100.00;101413.66;5032501;28;20031;-53
2023/04/29 00:13:54;;;;;;;54.55;37.25;;;;;;;9.81;100.00;101410.06;5027876;28;20071;-52
2023/04/29 00:16:19;;;;;;;52.50;36.40;;;;;;;9.80;100.00;101411.00;5038317;28;20022;-53
2023/04/29 00:18:44;;;;;;;56.45;37.28;;;;;;;9.81;100.00;101415.38;5044593;28;20082;-52
2023/04/29 00:21:10;;;;;;;51.75;35.38;;;;;;;9.80;100.00;101411.00;5040210;28;20032;-53
2023/04/29 00:23:35;;;;;;;47.67;34.85;;;;;;;9.78;100.00;101410.25;5035911;28;20454;-50
2023/04/29 00:26:01;;;;;;;49.95;36.03;;;;;;;9.78;100.00;101414.72;5033271;28;20086;-51
2023/04/29 00:28:26;;;;;;;45.97;33.92;;;;;;;9.77;100.00;101420.97;5029722;28;20382;-50
2023/04/29 00:30:51;;;;;;;45.90;34.90;;;;;;;9.77;100.00;101418.31;5033134;28;20494;-51
2023/04/29 00:33:17;;;;;;;47.72;33.47;;;;;;;9.77;100.00;101416.50;5032544;28;20442;-51
2023/04/29 00:35:42;;;;;;;46.65;32.63;;;;;;;9.76;100.00;101432.53;5039093;28;20163;-51
2023/04/29 00:38:07;;;;;;;43.13;32.20;;;;;;;9.75;100.00;101438.78;5038421;28;20356;-51
2023/04/29 00:40:33;;;;;;;39.83;32.08;;;;;;;9.70;100.00;101447.03;5041746;28;20022;-50
2023/04/29 00:42:58;;;;;;;33.20;28.13;;;;;;;9.66;100.00;101434.94;5047654;28;20029;-51
2023/04/29 00:45:24;;;;;;;36.40;28.38;;;;;;;9.63;100.00;101437.78;5044581;28;20017;-50
2023/04/29 00:47:49;;;;;;;35.67;28.85;;;;;;;9.58;100.00;101430.09;5040841;28;20060;-51
2023/04/29 00:50:14;;;;;;;34.95;27.33;;;;;;;9.54;100.00;101433.91;5042280;28;20075;-53
2023/04/29 00:52:41;;;;;;;31.35;26.40;;;;;;;9.48;100.00;101431.63;5042136;28;20013;-51
2023/04/29 00:55:07;;;;;;;31.40;26.20;;;;;;;9.45;100.00;101440.59;5032701;28;20486;-51
2023/04/29 00:57:33;;;;;;;32.95;26.92;;;;;;;9.41;100.00;101439.09;5033991;28;20076;-51
2023/04/29 00:59:59;;;;;;;35.15;28.40;;;;;;;9.39;100.00;101443.66;5034445;28;20029;-51
2023/04/29 01:02:25;;;;;;;33.92;28.10;;;;;;;9.34;100.00;101439.56;5034939;28;20033;-50
2023/04/29 01:04:51;;;;;;;32.63;27.15;;;;;;;9.34;100.00;101444.88;5034903;28;20387;-52
2023/04/29 01:07:22;;;;;;;32.50;27.17;;;;;;;9.30;100.00;101451.31;5036609;28;20032;-51
2023/04/29 01:09:50;;;;;;;31.23;27.02;;;;;;;9.31;100.00;101456.53;5039474;28;20034;-51
2023/04/29 01:12:35;;;;;;;31.92;27.98;;;;;;;9.32;100.00;101454.72;5033660;28;20087;-51
2023/04/29 01:15:00;;;;;;;30.48;26.23;;;;;;;9.26;100.00;101455.97;5034638;28;20401;-51
2023/04/29 01:17:30;;;;;;;32.77;28.90;;;;;;;9.23;100.00;101462.31;5032805;28;20094;-51
2023/04/29 01:19:57;;;;;;;39.03;29.50;;;;;;;9.22;100.00;101471.19;5030979;28;20463;-51
2023/04/29 01:22:23;;;;;;;33.10;29.25;;;;;;;9.21;100.00;101466.00;5035388;28;20471;-50
2023/04/29 01:24:48;;;;;;;34.50;29.27;;;;;;;9.21;100.00;101463.34;5032330;28;20113;-50
2023/04/29 01:27:28;;;;;;;34.13;29.05;;;;;;;9.23;100.00;101464.09;5031318;28;20029;-51
2023/04/29 01:30:11;;;;;;;37.17;29.88;;;;;;;9.23;100.00;101469.41;5021892;28;20033;-51
2023/04/29 01:32:43;;;;;;;38.50;28.92;;;;;;;9.21;100.00;101472.16;5031533;28;20052;-50
2023/04/29 01:35:25;;;;;;;37.17;30.20;;;;;;;9.20;100.00;101472.25;5031355;28;20064;-50
2023/04/29 01:38:28;;;;;;;36.10;29.58;;;;;;;9.23;100.00;101475.56;5033724;28;20025;-51
2023/04/29 01:41:17;;;;;;;39.55;30.90;;;;;;;9.23;100.00;101474.72;5027983;28;20045;-51
2023/04/29 01:43:46;;;;;;;;;;;;;;;9.29;100.00;101479.63;5035341;28;20068;-51
2023/04/29 01:46:15;;;;;;;37.78;30.60;;;;;;;9.21;100.00;101473.97;5033832;28;20260;-51
2023/04/29 01:48:40;;;;;;;39.78;30.48;;;;;;;9.21;100.00;101473.97;5034412;28;20104;-51
2023/04/29 01:51:06;;;;;;;39.80;31.27;;;;;;;9.20;100.00;101472.25;5037475;28;20201;-50
2023/04/29 01:53:31;;;;;;;45.13;31.85;;;;;;;9.16;100.00;101479.53;5043128;28;20021;-51
2023/04/29 01:55:57;;;;;;;45.58;32.25;;;;;;;9.13;100.00;101482.34;5039577;28;20037;-51
2023/04/29 01:58:22;;;;;;;43.72;33.85;;;;;;;9.12;100.00;101488.59;5031621;28;20032;-50
2023/04/29 02:00:47;;;;;;;44.00;33.28;;;;;;;9.12;100.00;101483.28;5041669;28;20422;-51
2023/04/29 02:03:13;;;;;;;42.17;32.63;;;;;;;9.13;100.00;101482.34;5040698;28;20021;-51
2023/04/29 02:05:38;;;;;;;41.03;31.52;;;;;;;9.15;100.00;101485.75;5033248;28;20022;-52
2023/04/29 02:08:06;;;;;;;44.03;33.90;;;;;;;9.14;100.00;101484.03;5038762;28;20043;-51
2023/04/29 02:10:31;;;;;;;45.42;34.38;;;;;;;9.11;100.00;101484.25;5033794;28;20022;-51
2023/04/29 02:12:56;;;;;;;46.95;35.80;;;;;;;9.13;100.00;101487.66;5033559;28;20120;-51
2023/04/29 02:15:24;;;;;;;47.88;34.35;;;;;;;9.12;100.00;101493.06;5032476;28;20072;-51
2023/04/29 02:17:50;;;;;;;49.70;35.03;;;;;;;9.13;100.00;101497.41;5030972;28;20368;-51
2023/04/29 02:20:15;;;;;;;47.42;35.20;;;;;;;9.10;100.00;101509.03;5045245;28;20029;-51
2023/04/29 02:22:41;;;;;;;47.70;34.58;;;;;;;9.08;100.00;101505.63;5041970;28;20037;-51
2023/04/29 02:25:07;;;;;;;50.13;36.05;;;;;;;9.05;100.00;101503.16;5035001;28;20022;-51
2023/04/29 02:27:32;;;;;;;51.47;35.60;;;;;;;9.07;100.00;101506.56;5035132;28;20050;-52
2023/04/29 02:29:57;;;;;;;49.45;35.88;;;;;;;9.08;100.00;101511.78;5021942;28;20034;-51
2023/04/29 02:32:23;;;;;;;46.45;35.50;;;;;;;9.11;100.00;101517.84;5032584;28;20438;-54
2023/04/29 02:34:48;;;;;;;53.33;35.28;;;;;;;9.10;100.00;101513.50;5029781;28;20274;-51
2023/04/29 02:37:14;;;;;;;47.85;35.80;;;;;;;9.11;100.00;101516.06;5013317;28;20121;-51
2023/04/29 02:39:40;;;;;;;53.53;37.97;;;;;;;9.09;100.00;101525.88;5015924;28;20479;-51
2023/04/29 02:42:05;;;;;;;51.80;35.78;;;;;;;9.11;100.00;101520.47;5025703;28;20049;-52
2023/04/29 02:44:30;;;;;;;52.33;37.85;;;;;;;9.12;100.00;101527.50;5019847;28;20466;-52
2023/04/29 02:46:56;;;;;;;56.28;36.40;;;;;;;9.14;100.00;101529.09;5030137;28;20494;-53
2023/04/29 02:49:22;;;;;;;49.20;36.08;;;;;;;9.12;100.00;101531.00;5030185;28;20033;-51
2023/04/29 02:51:48;;;;;;;50.15;35.78;;;;;;;9.14;100.00;101536.22;5031603;28;20391;-53
2023/04/29 02:54:15;;;;;;;50.83;35.95;;;;;;;9.12;100.00;101538.09;5036758;28;20065;-50
2023/04/29 02:56:40;;;;;;;50.72;35.05;;;;;;;9.14;100.00;101541.50;5048044;28;20109;-52
2023/04/29 02:59:06;;;;;;;52.65;36.10;;;;;;;9.13;100.00;101542.47;5050681;28;20104;-51
2023/04/29 03:01:31;;;;;;;51.67;35.08;;;;;;;9.13;100.00;101547.78;5048605;28;20395;-53
2023/04/29 03:03:57;;;;;;;48.50;35.65;;;;;;;9.11;100.00;101552.28;5035810;28;20057;-55
2023/04/29 03:06:22;;;;;;;51.92;35.92;;;;;;;9.11;100.00;101552.28;5034368;28;20030;-53
2023/04/29 03:08:47;;;;;;;53.25;35.97;;;;;;;9.09;100.00;101549.72;5042891;28;20613;-54
2023/04/29 03:11:13;;;;;;;47.97;34.20;;;;;;;9.07;100.00;101543.66;5030832;28;20028;-52
2023/04/29 03:13:38;;;;;;;50.40;34.47;;;;;;;9.07;100.00;101541.88;5038992;28;20021;-52
2023/04/29 03:16:03;;;;;;;48.15;36.22;;;;;;;9.07;100.00;101549.81;5039407;28;20068;-52
2023/04/29 03:18:29;;;;;;;48.28;35.33;;;;;;;9.08;100.00;101546.22;5049710;28;20390;-51
2023/04/29 03:20:54;;;;;;;52.55;35.40;;;;;;;9.07;100.00;101547.16;5035269;28;20554;-52
2023/04/29 03:23:19;;;;;;;52.92;34.70;;;;;;;9.04;100.00;101552.66;5047175;28;20036;-51
2023/04/29 03:25:45;;;;;;;51.10;33.80;;;;;;;9.03;100.00;101556.25;5040785;28;20111;-52
2023/04/29 03:28:10;;;;;;;54.10;34.63;;;;;;;9.02;100.00;101551.88;5044613;28;20033;-53
2023/04/29 03:30:35;;;;;;;54.28;35.42;;;;;;;9.02;100.00;101557.19;5048104;28;20449;-53
2023/04/29 03:33:00;;;;;;;51.95;33.47;;;;;;;9.02;100.00;101562.47;5044355;28;20360;-52
2023/04/29 03:35:26;;;;;;;47.55;33.95;;;;;;;9.02;100.00;101566.94;5037113;28;20028;-51
2023/04/29 03:37:52;;;;;;;51.95;33.97;;;;;;;9.00;100.00;101569.69;5038103;28;20053;-54
2023/04/29 03:40:17;;;;;;;53.55;33.80;;;;;;;8.99;100.00;101565.34;5036562;28;20018;-52
2023/04/29 03:42:43;;;;;;;49.78;32.75;;;;;;;9.00;100.00;101568.84;5035563;28;20033;-54
2023/04/29 03:45:09;;;;;;;52.10;33.33;;;;;;;8.99;100.00;101575.06;5022341;28;20087;-53
2023/04/29 03:47:35;;;;;;;48.28;31.63;;;;;;;9.00;100.00;101582.06;5032782;28;20037;-56
2023/04/29 03:50:00;;;;;;;50.47;33.10;;;;;;;9.00;100.00;101574.97;5036646;28;20025;-51
2023/04/29 03:52:26;;;;;;;46.83;32.78;;;;;;;9.00;100.00;101577.63;5035818;28;20040;-53
2023/04/29 03:54:51;;;;;;;46.60;32.10;;;;;;;8.98;100.00;101582.16;5036385;28;20056;-53
2023/04/29 03:57:16;;;;;;;49.13;33.45;;;;;;;8.97;100.00;101577.78;5034046;28;20064;-51
2023/04/29 03:59:41;;;;;;;49.97;31.67;;;;;;;8.98;100.00;101576.03;5036622;28;20079;-55
2023/04/29 04:02:07;;;;;;;44.50;32.30;;;;;;;9.01;100.00;101575.81;5032657;28;20025;-53
2023/04/29 04:04:32;;;;;;;45.45;32.30;;;;;;;9.00;100.00;101579.44;5034392;28;20079;-53
2023/04/29 04:06:58;;;;;;;48.92;32.13;;;;;;;9.00;100.00;101582.91;5035211;28;20527;-51
2023/04/29 04:09:23;;;;;;;41.03;29.10;;;;;;;8.99;100.00;101585.66;5043348;28;20100;-52
2023/04/29 04:11:48;;;;;;;40.55;29.38;;;;;;;8.95;100.00;101587.63;5035139;28;20483;-51
2023/04/29 04:14:14;;;;;;;44.45;29.02;;;;;;;8.96;100.00;101586.72;5033679;28;20025;-51
2023/04/29 04:16:39;;;;;;;42.95;29.92;;;;;;;8.94;100.00;101595.66;5034642;28;20490;-55
2023/04/29 04:19:04;;;;;;;41.63;29.77;;;;;;;8.95;100.00;101600.88;5033547;28;20108;-53
2023/04/29 04:21:30;;;;;;;41.67;28.67;;;;;;;8.94;100.00;101599.16;5035042;28;20037;-54
2023/04/29 04:23:55;;;;;;;40.90;29.55;;;;;;;8.89;100.00;101606.53;5035780;28;20485;-51
2023/04/29 04:26:21;;;;;;;44.92;30.20;;;;;;;8.92;100.00;101606.34;5033825;28;20157;-52
2023/04/29 04:28:47;;;;;;;41.78;29.17;;;;;;;8.90;100.00;101602.94;5036128;28;20029;-51
2023/04/29 04:31:13;;;;;;;37.67;27.83;;;;;;;8.95;100.00;101608.00;5035312;28;20120;-51
2023/04/29 04:33:39;;;;;;;36.60;27.75;;;;;;;8.95;100.00;101605.34;5033320;28;20480;-51
2023/04/29 04:36:05;;;;;;;39.75;28.35;;;;;;;8.95;100.00;101614.13;5035417;28;20171;-54
2023/04/29 04:38:31;;;;;;;38.90;28.45;;;;;;;8.93;100.00;101621.31;5033293;28;20468;-52
2023/04/29 04:40:57;;;;;;;39.10;28.45;;;;;;;8.93;100.00;101618.66;5033394;28;20379;-52
2023/04/29 04:43:22;;;;;;;41.90;28.67;;;;;;;8.94;100.00;101628.31;5027893;28;20029;-52
2023/04/29 04:45:48;;;;;;;37.55;27.27;;;;;;;8.92;100.00;101627.56;5025026;28;20040;-51
2023/04/29 04:48:13;;;;;;;38.17;27.75;;;;;;;8.93;100.00;101633.72;5042732;28;20025;-52
2023/04/29 04:50:38;;;;;;;37.83;28.27;;;;;;;8.92;100.00;101635.50;5038700;28;20534;-52
2023/04/29 04:53:04;;;;;;;41.30;29.17;;;;;;;8.92;100.00;101638.16;5033680;28;20029;-56
2023/04/29 04:55:32;;;;;;;44.55;28.85;;;;;;;8.91;100.00;101641.75;5032653;28;20067;-52
2023/04/29 04:57:57;;;;;;;39.88;26.98;;;;;;;8.95;100.00;101648.56;5033615;28;20045;-51
2023/04/29 05:00:22;;;;;;;42.60;28.08;;;;;;;8.94;100.00;101646.84;5033316;28;20115;-51
2023/04/29 05:02:48;;;;;;;36.17;26.85;;;;;;;8.97;100.00;101651.13;5031265;28;20076;-52
2023/04/29 05:05:13;;;;;;;43.10;27.92;;;;;;;8.96;100.00;101660.91;5033348;28;20029;-51
2023/04/29 05:07:38;;;;;;;40.33;28.65;;;;;;;8.99;100.00;101659.84;5032851;28;20025;-51
2023/04/29 05:10:05;;;;;;;39.47;28.13;;;;;;;8.99;100.00;101666.03;5031635;28;20459;-52
2023/04/29 05:12:31;;;;;;;35.45;26.58;;;;;;;9.00;100.00;101672.16;5033997;28;20035;-51
2023/04/29 05:14:56;;;;;;;36.25;26.10;;;;;;;8.99;100.00;101666.03;5033343;28;20030;-51
2023/04/29 05:17:22;;;;;;;40.00;27.60;;;;;;;9.00;100.00;101666.88;5032038;28;20394;-53
2023/04/29 05:19:47;;;;;;;41.53;27.02;;;;;;;9.00;100.00;101665.06;5039047;28;20036;-51
2023/04/29 05:22:12;;;;;;;37.53;26.88;;;;;;;9.02;100.00;101665.81;5038615;28;20021;-52
2023/04/29 05:24:37;;;;;;;35.80;25.10;;;;;;;9.04;100.00;101674.56;5036031;28;20121;-51
2023/04/29 05:27:03;;;;;;;41.40;26.77;;;;;;;9.02;100.00;101680.88;5038099;28;20391;-52
2023/04/29 05:29:29;;;;;;;41.40;26.92;;;;;;;9.03;100.00;101677.31;5036691;28;20029;-52
2023/04/29 05:31:54;;;;;;;35.95;26.00;;;;;;;9.03;100.00;101674.66;5031799;28;20025;-51
2023/04/29 05:34:19;;;;;;;38.42;26.40;;;;;;;9.03;100.00;101682.59;5032484;28;20040;-51
2023/04/29 05:36:45;;;;;;;32.53;23.98;;;;;;;9.02;100.00;101680.88;5031764;28;20024;-52
2023/04/29 05:39:11;;;;;;;38.00;24.90;;;;;;;9.01;100.00;101677.38;5030965;28;20037;-51
2023/04/29 05:41:36;;;;;;;37.00;26.08;;;;;;;9.01;100.00;101685.34;5032849;28;20368;-53
2023/04/29 05:44:01;;;;;;;35.30;24.83;;;;;;;9.00;100.00;101690.72;5024446;28;20030;-52
2023/04/29 05:46:26;;;;;;;32.33;25.38;;;;;;;9.00;100.00;101696.84;5041501;28;20022;-54
2023/04/29 05:48:52;;;;;;;36.20;24.88;;;;;;;8.99;100.00;101700.47;5038751;28;20040;-52
2023/04/29 05:51:17;;;;;;;33.05;25.50;;;;;;;8.98;100.00;101706.69;5015864;28;20033;-51
2023/04/29 05:53:43;;;;;;;39.67;26.23;;;;;;;8.99;100.00;101703.13;5019235;28;20025;-52
2023/04/29 05:56:08;;;;;;;34.08;23.98;;;;;;;8.99;100.00;101712.84;5027996;28;20076;-51
2023/04/29 05:58:34;;;;;;;31.42;24.48;;;;;;;9.00;100.00;101714.56;5031211;28;20101;-59
2023/04/29 06:01:00;;;;;;;34.95;24.73;;;;;;;9.01;100.00;101718.91;5038293;28;20471;-59
2023/04/29 06:03:25;;;;;;;31.77;23.83;;;;;;;9.05;100.00;101723.09;5039476;28;20463;-58
2023/04/29 06:05:50;;;;;;;33.55;24.50;;;;;;;9.07;100.00;101726.53;5037861;28;20044;-60
2023/04/29 06:08:16;;;;;;;32.75;24.65;;;;;;;9.03;100.00;101723.19;5034269;28;20036;-60
2023/04/29 06:10:41;;;;;;;36.50;24.85;;;;;;;9.05;100.00;101731.91;5024969;28;20099;-60
2023/04/29 06:13:06;;;;;;;32.97;23.85;;;;;;;9.04;100.00;101730.22;5035531;28;20498;-61
2023/04/29 06:15:32;;;;;;;32.72;23.98;;;;;;;9.06;100.00;101740.72;5037899;28;20048;-60
2023/04/29 06:17:57;;;;;;;32.97;24.50;;;;;;;9.04;100.00;101738.16;5040270;28;20033;-60
2023/04/29 06:20:22;;;;;;;34.95;24.17;;;;;;;9.06;100.00;101736.28;5025756;28;20038;-61
2023/04/29 06:22:48;;;;;;;33.63;24.80;;;;;;;9.09;100.00;101737.88;5037980;28;20040;-60
2023/04/29 06:25:13;;;;;;;31.83;23.65;;;;;;;9.10;100.00;101742.25;5034851;28;20100;-60
2023/04/29 06:27:38;;;;;;;30.60;24.05;;;;;;;9.11;100.00;101751.03;5026867;28;20574;-61
2023/04/29 06:30:05;;;;;;;34.45;24.80;;;;;;;9.12;100.00;101747.47;5033096;28;20115;-60
2023/04/29 06:32:30;;;;;;;35.15;24.60;;;;;;;9.12;100.00;101748.31;5028526;28;21125;-60
2023/04/29 06:34:55;;;;;;;36.45;24.80;;;;;;;9.13;100.00;101759.78;5032046;28;20085;-60
2023/04/29 06:37:20;;;;;;;31.77;24.55;;;;;;;9.15;100.00;101765.84;5030189;28;20499;-61
2023/04/29 06:39:46;;;;;;;32.90;22.90;;;;;;;9.16;100.00;101762.25;5043064;28;20028;-60
2023/04/29 06:42:11;;;;;;;37.45;25.02;;;;;;;9.17;100.00;101766.63;5032060;28;20506;-60
2023/04/29 06:44:36;;;;;;;37.78;24.90;;;;;;;9.18;100.00;101771.84;5028603;28;20026;-60
2023/04/29 06:47:02;;;;;;;35.08;23.88;;;;;;;9.22;100.00;101770.72;5038181;28;20045;-60
2023/04/29 06:49:27;;;;;;;34.28;25.70;;;;;;;9.25;100.00;101781.16;5033162;28;20475;-61
2023/04/29 06:51:53;;;;;;;34.92;24.55;;;;;;;9.28;100.00;101781.94;5037752;28;20037;-60
2023/04/29 06:54:18;;;;;;;33.97;24.92;;;;;;;9.30;100.00;101780.91;5034938;28;20116;-61
2023/04/29 06:56:43;;;;;;;31.90;23.95;;;;;;;9.35;100.00;101789.44;5036999;28;20426;-60
2023/04/29 06:59:11;;;;;;;39.30;30.30;;;;;;;9.39;100.00;101790.13;5031324;28;20080;-60
2023/04/29 07:01:36;;;;;;;37.35;27.10;;;;;;;9.43;100.00;101796.97;5046365;28;20041;-61
2023/04/29 07:04:02;;;;;;;34.00;25.02;;;;;;;9.46;100.00;101807.41;5044783;28;20387;-60
2023/04/29 07:06:28;;;;;;;31.15;24.05;;;;;;;9.47;100.00;101806.44;5044502;28;20052;-60
2023/04/29 07:08:53;;;;;;;37.03;25.48;;;;;;;9.52;100.00;101811.50;5027794;28;20427;-60
2023/04/29 07:11:18;;;;;;;31.30;23.77;;;;;;;9.53;100.00;101807.91;5035869;28;20475;-60
2023/04/29 07:13:44;;;;;;;33.67;23.65;;;;;;;9.55;100.00;101812.19;5030287;28;20040;-60
2023/04/29 07:16:17;;;;;;;31.08;23.52;;;;;;;9.58;100.00;101816.47;5038323;28;20049;-59
2023/04/29 07:18:43;;;;;;;30.85;22.58;;;;;;;9.58;100.00;101816.47;5023637;28;20515;-60
2023/04/29 07:21:08;;;;;;;31.08;23.52;;;;;;;9.58;100.00;101817.31;5029992;28;20060;-60
2023/04/29 07:23:33;;;;;;;33.13;23.65;;;;;;;9.61;100.00;101813.66;5027930;28;20025;-60
2023/04/29 07:26:08;;;;;;;30.95;22.27;;;;;;;9.63;100.00;101817.91;5038902;28;20041;-60
2023/04/29 07:28:33;;;;;;;33.15;23.20;;;;;;;9.65;100.00;101823.13;5025615;28;20018;-59
2023/04/29 07:30:58;;;;;;;30.33;22.60;;;;;;;9.69;100.00;101824.69;5044397;28;20514;-60
2023/04/29 07:33:24;;;;;;;28.50;21.50;;;;;;;9.74;100.00;101833.22;5029108;28;20033;-60
2023/04/29 07:35:49;;;;;;;28.15;21.90;;;;;;;9.76;100.00;101831.31;5032202;28;20391;-59
2023/04/29 07:38:14;;;;;;;30.35;22.60;;;;;;;9.77;100.00;101837.47;5032541;28;20029;-60
2023/04/29 07:40:40;;;;;;;31.23;22.23;;;;;;;9.80;100.00;101837.31;5033156;28;20033;-60
2023/04/29 07:43:07;;;;;;;31.95;22.60;;;;;;;9.86;100.00;101841.41;5028222;28;20066;-58
2023/04/29 07:45:33;;;;;;;32.08;22.85;;;;;;;9.87;100.00;101837.81;5029093;28;20029;-61
2023/04/29 07:47:58;;;;;;;28.15;21.15;;;;;;;9.92;100.00;101844.56;5030175;28;20048;-60
2023/04/29 07:50:23;;;;;;;28.08;21.45;;;;;;;9.95;100.00;101840.88;5023770;28;20022;-60
2023/04/29 07:52:49;;;;;;;26.83;20.65;;;;;;;9.96;100.00;101837.28;5028872;28;20749;-60
2023/04/29 07:55:14;;;;;;;28.58;22.27;;;;;;;10.02;100.00;101850.19;5015739;28;20026;-60
2023/04/29 07:57:39;;;;;;;26.48;21.60;;;;;;;10.07;100.00;101845.47;5025121;28;20511;-60
2023/04/29 08:00:07;;;;;;;26.45;21.38;;;;;;;10.12;100.00;101853.16;5028813;28;20104;-60
2023/04/29 08:02:32;;;;;;;29.42;22.38;;;;;;;10.18;100.00;101851.00;5030724;28;20390;-60
2023/04/29 08:04:59;;;;;;;28.75;22.48;;;;;;;10.26;100.00;101852.34;5038447;28;20021;-60
2023/04/29 08:07:24;;;;;;;26.92;21.05;;;;;;;10.31;100.00;101848.47;5025852;28;20048;-60
2023/04/29 08:09:50;;;;;;;25.73;20.50;;;;;;;10.36;100.00;101856.22;5029733;28;20395;-60
2023/04/29 08:12:15;;;;;;;34.90;21.42;;;;;;;10.44;100.00;101856.63;5026811;28;20113;-59
2023/04/29 08:14:40;;;;;;;25.13;19.63;;;;;;;10.46;100.00;101865.34;5019522;28;20037;-60
2023/04/29 08:17:07;;;;;;;27.75;21.13;;;;;;;10.54;100.00;101863.06;5015324;28;20099;-59
2023/04/29 08:19:32;;;;;;;24.70;20.55;;;;;;;10.60;100.00;101861.84;5012858;28;20215;-57
2023/04/29 08:21:57;;;;;;;26.60;19.88;;;;;;;10.68;100.00;101864.03;5018526;28;20056;-58
2023/04/29 08:24:22;;;;;;;24.42;20.10;;;;;;;10.74;100.00;101861.88;4991340;28;20072;-59
2023/04/29 08:26:49;;;;;;;26.02;20.02;;;;;;;10.81;100.00;101864.13;5025329;28;20137;-58
2023/04/29 08:29:15;;;;;;;26.25;18.95;;;;;;;10.87;100.00;101858.44;5032525;28;20636;-59
2023/04/29 08:31:40;;;;;;;24.63;18.75;;;;;;;10.95;100.00;101868.63;5025084;28;20124;-58
2023/04/29 08:34:05;;;;;;;24.73;18.55;;;;;;;11.00;100.00;101869.19;5017972;28;20507;-58
2023/04/29 08:36:31;;;;;;;27.48;19.85;;;;;;;11.08;100.00;101869.56;5015583;28;20061;-58
2023/04/29 08:38:56;;;;;;;22.55;18.42;;;;;;;11.14;100.00;101868.31;5023502;28;20040;-59
2023/04/29 08:41:22;;;;;;;22.10;18.23;;;;;;;11.25;100.00;101873.81;5022124;28;20041;-59
2023/04/29 08:43:47;;;;;;;22.38;17.58;;;;;;;11.35;100.00;101879.41;5014726;28;20018;-59
2023/04/29 08:46:13;;;;;;;26.38;17.33;;;;;;;11.44;100.00;101874.38;5015758;28;20052;-59
2023/04/29 08:48:39;;;;;;;23.50;17.60;;;;;;;11.58;100.00;101878.78;5019095;28;20084;-59
2023/04/29 08:51:05;;;;;;;24.30;17.83;;;;;;;11.69;100.00;101885.22;5017015;28;20105;-59
2023/04/29 08:53:30;;;;;;;19.55;16.08;;;;;;;11.79;99.17;101881.00;5016588;28;20037;-59
2023/04/29 08:56:00;;;;;;;23.63;17.17;;;;;;;12.06;100.00;101882.84;5022291;28;20022;-59
2023/04/29 08:58:28;;;;;;;21.40;15.55;;;;;;;12.16;96.26;101891.97;5028812;28;20060;-58
2023/04/29 09:00:54;;;;;;;22.42;15.73;;;;;;;12.38;96.26;101878.88;5019364;28;20029;-59
2023/04/29 09:03:40;;;;;;;18.23;14.93;;;;;;;12.57;94.73;101882.97;5028843;28;20026;-59
2023/04/29 09:06:09;;;;;;;20.77;15.35;;;;;;;12.68;92.76;101885.75;5018574;28;20451;-58
2023/04/29 09:08:35;;;;;;;18.95;14.43;;;;;;;12.82;92.48;101892.78;5012618;28;20427;-59
2023/04/29 09:11:01;;;;;;;20.35;14.40;;;;;;;13.16;92.62;101889.59;5015775;28;20029;-55
2023/04/29 09:13:28;;;;;;;21.33;14.30;;;;;;;13.41;89.74;101894.06;5017927;28;20030;-58
2023/04/29 09:15:54;;;;;;;15.02;13.30;;;;;;;13.75;89.89;101892.44;5028561;28;20461;-58
2023/04/29 09:18:50;;;;;;;15.93;12.93;;;;;;;14.04;89.80;101884.09;5017084;28;20017;-63
2023/04/29 09:21:16;;;;;;;16.13;11.93;;;;;;;14.32;86.55;101898.91;5017508;28;20438;-58
2023/04/29 09:23:42;;;;;;;13.40;10.55;;;;;;;14.45;83.77;101896.13;5017318;28;20026;-58
2023/04/29 09:26:07;;;;;;;15.07;11.35;;;;;;;14.52;79.71;101894.72;5014945;28;20077;-58
2023/04/29 09:28:33;;;;;;;15.48;11.80;;;;;;;14.70;81.28;101891.63;5016598;28;20494;-58
2023/04/29 09:30:58;;;;;;;16.95;11.40;;;;;;;14.75;80.42;101892.09;5016374;28;20025;-59
2023/04/29 09:33:27;;;;;;;17.30;11.45;;;;;;;14.88;81.39;101892.00;5015850;28;20115;-59
2023/04/29 09:35:53;;;;;;;14.07;11.88;;;;;;;14.94;79.47;101900.41;4998227;28;20030;-58
2023/04/29 09:38:18;;;;;;;15.60;11.73;;;;;;;14.89;77.95;101899.91;5017844;28;20482;-58
2023/04/29 09:40:43;;;;;;;12.75;8.98;;;;;;;14.88;74.82;101908.06;5012909;28;20088;-58
2023/04/29 09:43:17;;;;;;;12.82;9.38;;;;;;;14.89;78.04;101907.94;5025820;28;20104;-58
2023/04/29 09:45:45;;;;;;;13.73;10.55;;;;;;;14.91;75.42;101908.66;5013554;28;20486;-57
2023/04/29 09:48:11;;;;;;;17.27;11.18;;;;;;;14.93;77.39;101909.41;5027028;28;20033;-57
2023/04/29 09:50:38;;;;;;;15.63;11.05;;;;;;;14.88;76.12;101914.25;5017313;28;20037;-58
2023/04/29 09:53:08;;;;;;;13.75;10.43;;;;;;;14.92;77.01;101915.72;5030910;28;20091;-59
2023/04/29 09:55:35;;;;;;;15.63;10.57;;;;;;;14.97;75.46;101912.69;5031853;28;20036;-58
2023/04/29 09:58:00;;;;;;;14.18;9.70;;;;;;;15.09;74.85;101918.91;5032196;28;20092;-58
2023/04/29 10:00:30;;;;;;;13.88;10.35;;;;;;;15.02;73.80;101923.03;5040010;28;20029;-58
2023/04/29 10:02:58;;;;;;;15.48;9.75;;;;;;;15.04;74.70;101921.94;5031383;28;20460;-58
2023/04/29 10:05:27;;;;;;;13.40;10.48;;;;;;;15.05;74.03;101926.31;5033152;28;20049;-58
2023/04/29 10:07:53;;;;;;;10.60;8.10;;;;;;;15.08;70.66;101931.41;5034642;28;20108;-58
2023/04/29 10:10:20;;;;;;;12.10;9.63;;;;;;;15.14;72.32;101936.31;5029397;28;20453;-58
2023/04/29 10:12:46;;;;;;;14.20;9.50;;;;;;;15.14;70.55;101932.78;5036649;28;20021;-59
2023/04/29 10:15:21;;;;;;;13.13;9.65;;;;;;;15.11;72.66;101936.53;5040704;28;20056;-59
2023/04/29 10:17:51;;;;;;;14.85;9.48;;;;;;;15.05;73.03;101936.16;5037647;28;20065;-59
2023/04/29 10:20:22;;;;;;;13.52;9.95;;;;;;;15.06;70.96;101937.88;5035623;28;20043;-58
2023/04/29 10:22:49;;;;;;;16.30;9.73;;;;;;;14.96;72.77;101937.75;5037092;28;20017;-58
2023/04/29 10:25:17;;;;;;;14.95;9.65;;;;;;;14.93;72.40;101938.81;5035100;28;20045;-58
2023/04/29 10:27:43;;;;;;;13.20;9.23;;;;;;;14.88;73.26;101938.31;5034791;28;20065;-58
2023/04/29 10:30:19;;;;;;;12.38;9.00;;;;;;;14.92;73.27;101938.94;5038113;28;20025;-58
2023/04/29 10:32:45;;;;;;;12.43;8.90;;;;;;;14.83;72.73;101943.19;5026751;28;20029;-58
2023/04/29 10:35:15;;;;;;;12.50;9.02;;;;;;;14.80;72.47;101940.75;5008879;28;20041;-58
2023/04/29 10:37:42;;;;;;;13.15;8.45;;;;;;;14.74;73.34;101942.06;5022879;28;20435;-58
2023/04/29 10:40:10;;;;;;;14.45;8.77;;;;;;;14.88;70.97;101941.00;5035652;28;20045;-57
2023/04/29 10:42:45;;;;;;;13.00;8.77;;;;;;;15.11;72.28;101935.69;5034825;28;20040;-58
2023/04/29 10:45:30;;;;;;;13.30;8.98;;;;;;;15.26;73.10;101936.31;5028331;28;20048;-58
2023/04/29 10:48:01;;;;;;;13.65;9.10;;;;;;;15.34;71.17;101940.06;5029000;28;20030;-58
2023/04/29 10:50:58;;;;;;;13.63;9.18;;;;;;;15.43;71.79;101934.97;5031378;28;20124;-58
2023/04/29 10:53:24;;;;;;;13.43;8.93;;;;;;;15.45;70.96;101933.84;5027788;28;20042;-58
2023/04/29 10:55:55;;;;;;;11.77;8.77;;;;;;;15.44;70.13;101934.84;5031846;28;20107;-58
2023/04/29 10:58:37;;;;;;;11.60;8.43;;;;;;;15.49;71.04;101945.19;5026349;28;20049;-58
2023/04/29 11:01:02;;;;;;;11.20;8.45;;;;;;;15.42;68.85;101949.31;5025360;28;20510;-58
2023/04/29 11:03:47;;;;;;;10.63;8.20;;;;;;;15.53;71.16;101942.13;5026003;28;20049;-59
2023/04/29 11:06:14;;;;;;;10.15;7.97;;;;;;;15.61;70.00;101949.56;5023937;28;20033;-58
2023/04/29 11:08:41;;;;;;;14.07;8.07;;;;;;;15.58;65.67;101949.78;5032750;28;20380;-59